createdAt,value
2019-05-21T00:04:40.462Z,56.6
2019-05-21T00:14:43.814Z,56.5
2019-05-21T00:24:47.307Z,56.7
2019-05-21T00:34:50.886Z,56.9
2019-05-21T00:44:54.295Z,56.8
2019-05-21T00:54:57.619Z,56.8
2019-05-21T01:05:01.825Z,56.9
2019-05-21T01:15:05.183Z,56.8
2019-05-21T01:25:08.521Z,56.8
2019-05-21T01:35:17.709Z,56.6
2019-05-21T01:45:21.132Z,56.5
2019-05-21T01:55:24.477Z,56.3
2019-05-21T02:05:33.765Z,56.4
2019-05-21T02:15:37.182Z,56.3
2019-05-21T02:25:40.577Z,56.3
2019-05-21T02:35:55.081Z,56.2
2019-05-21T02:45:58.687Z,56.1
2019-05-21T02:56:02.074Z,56.1
2019-05-21T03:06:14.991Z,56
2019-05-21T03:16:18.748Z,56
2019-05-21T03:26:22.164Z,56
2019-05-21T03:36:34.482Z,56
2019-05-21T03:46:38.174Z,56.1
2019-05-21T03:56:41.545Z,56
2019-05-21T04:06:52.745Z,56
2019-05-21T04:16:56.397Z,56.2
2019-05-21T04:26:59.801Z,56.1
2019-05-21T04:37:12.092Z,56.1
2019-05-21T04:47:21.001Z,56.1
2019-05-21T04:57:24.427Z,56
2019-05-21T05:07:29.130Z,55.8
2019-05-21T05:17:32.527Z,55.7
2019-05-21T05:27:35.963Z,55.6
2019-05-21T05:37:48.685Z,55.9
2019-05-21T05:47:52.630Z,56.1
2019-05-21T05:57:55.960Z,56.7
2019-05-21T06:08:00.779Z,56.9
2019-05-21T06:18:04.170Z,56.9
2019-05-21T06:28:07.743Z,56.7
2019-05-21T06:38:18.555Z,56.6
2019-05-21T06:48:21.987Z,56.2
2019-05-21T06:58:25.324Z,56.3
2019-05-21T07:08:35.362Z,56.6
2019-05-21T07:18:41.803Z,56.1
2019-05-21T07:28:45.255Z,55.9
2019-05-21T07:38:54.516Z,56.7
2019-05-21T07:48:58.004Z,57.5
2019-05-21T07:59:01.765Z,57.1
2019-05-21T08:09:14.770Z,56.7
2019-05-21T08:19:18.564Z,56.1
2019-05-21T08:29:21.885Z,55.8
2019-05-21T08:39:29.479Z,55.6
2019-05-21T08:49:32.896Z,55.6
2019-05-21T08:59:36.253Z,55.6
2019-05-21T09:09:51.873Z,56.6
2019-05-21T09:19:55.662Z,56.9
2019-05-21T09:29:59.007Z,56.7
2019-05-21T09:40:02.702Z,56.7
2019-05-21T09:50:06.529Z,56.4
2019-05-21T10:00:10.482Z,56.3
2019-05-21T10:10:13.819Z,56
2019-05-21T10:20:17.150Z,55.8
2019-05-21T10:30:20.470Z,57.4
2019-05-21T10:40:23.801Z,56.6
2019-05-21T10:50:27.148Z,56
2019-05-21T11:00:30.494Z,56
2019-05-21T11:10:33.823Z,55.8
2019-05-21T11:20:37.188Z,55.9
2019-05-21T11:30:40.523Z,55.8
2019-05-21T11:40:44.085Z,56.1
2019-05-21T11:50:53.985Z,56.3
2019-05-21T12:00:57.385Z,56.2
2019-05-21T12:11:00.720Z,56.2
2019-05-21T12:21:04.069Z,55.9
2019-05-21T12:31:07.440Z,55.1
2019-05-21T12:41:14.127Z,55.7
2019-05-21T12:51:17.617Z,55.8
2019-05-21T13:01:20.944Z,55.9
2019-05-21T13:11:24.305Z,56.5
2019-05-21T13:21:27.641Z,57.4
2019-05-21T13:31:30.982Z,57.9
2019-05-21T13:41:34.383Z,56.7
2019-05-21T13:51:37.821Z,56.9
2019-05-21T14:01:41.956Z,56.5
2019-05-21T14:11:45.296Z,56
2019-05-21T14:21:48.641Z,56.1
2019-05-21T14:31:51.987Z,56.1
2019-05-21T14:41:55.338Z,55.9
2019-05-21T14:51:58.754Z,55.5
2019-05-21T15:02:02.082Z,55.7
2019-05-21T15:12:05.428Z,55.9
2019-05-21T15:22:08.751Z,55.3
2019-05-21T15:32:12.107Z,55.5
2019-05-21T15:42:15.451Z,55.6
2019-05-21T15:52:18.813Z,55.5
2019-05-21T16:02:22.161Z,55.7
2019-05-21T16:12:25.552Z,55.7
2019-05-21T16:22:28.958Z,55.7
2019-05-21T16:32:32.445Z,56
2019-05-21T16:42:35.796Z,55.9
2019-05-21T16:52:39.232Z,55.8
2019-05-21T17:02:42.602Z,55.9
2019-05-21T17:12:45.960Z,55.9
2019-05-21T17:22:49.313Z,55.9
2019-05-21T17:32:52.658Z,55.7
2019-05-21T17:42:55.990Z,55.5
2019-05-21T17:52:59.329Z,55.4
2019-05-21T18:03:02.660Z,55.2
2019-05-21T18:13:06.138Z,55.1
2019-05-21T18:23:09.456Z,55
2019-05-21T18:33:12.797Z,54.9
2019-05-21T18:43:16.165Z,54.8
2019-05-21T18:53:19.513Z,54.8
2019-05-21T19:03:26.187Z,54.7
2019-05-21T19:13:29.703Z,54.6
2019-05-21T19:23:33.025Z,54.5
2019-05-21T19:33:36.349Z,54.6
2019-05-21T19:43:39.687Z,54.5
2019-05-21T19:53:44.011Z,54.4
2019-05-21T20:03:47.336Z,54.4
2019-05-21T20:13:50.700Z,54.4
2019-05-21T20:23:54.030Z,54.4
2019-05-21T20:33:57.382Z,54.3
2019-05-21T20:44:00.701Z,54.2
2019-05-21T20:54:04.032Z,54.2
2019-05-21T21:04:07.397Z,54.2
2019-05-21T21:14:18.638Z,54.2
2019-05-21T21:24:22.029Z,54.1
2019-05-21T21:34:25.375Z,54.1
2019-05-21T21:44:34.578Z,54.2
2019-05-21T21:54:37.963Z,54.2
2019-05-21T22:04:41.459Z,54.1
2019-05-21T22:14:52.424Z,54.1
2019-05-21T22:24:56.010Z,54
2019-05-21T22:34:59.404Z,54
2019-05-21T22:45:09.157Z,53.9
2019-05-21T22:55:12.670Z,53.9
2019-05-21T23:05:15.982Z,53.9
2019-05-21T23:15:25.713Z,53.9
2019-05-21T23:25:29.218Z,53.8
2019-05-21T23:35:32.550Z,53.8
2019-05-21T23:45:35.916Z,53.8
2019-05-21T23:55:39.261Z,53.8
